Time;durP1;ratioP1;P1;durP2;ratioP2;P2;SDS_P1;SDS_P2;PMS_P1;PMS_P2;Temp;Humidity;BMP_temperature;BMP_pressure;BME280_temperature;BME280_humidity;BME280_pressure;Samples;Min_cycle;Max_cycle;Signal;HPM_P1;HPM_P2
2023/06/22 00:00:50;;;;;;;37.97;20.83;;;;;;;20.32;100.00;97396.78;5032618;28;20844;-70
2023/06/22 00:03:18;;;;;;;34.40;20.45;;;;;;;20.33;100.00;97398.41;5047803;28;20747;-70
2023/06/22 00:05:45;;;;;;;37.30;19.80;;;;;;;20.36;100.00;97399.69;5030960;28;20416;-70
2023/06/22 00:08:12;;;;;;;30.23;18.23;;;;;;;20.36;100.00;97403.16;5041529;28;20767;-70
2023/06/22 00:10:39;;;;;;;40.88;20.80;;;;;;;20.38;100.00;97400.94;5039213;28;20418;-70
2023/06/22 00:13:07;;;;;;;41.78;21.52;;;;;;;20.43;100.00;97403.50;5032180;28;20411;-70
2023/06/22 00:15:33;;;;;;;44.00;22.10;;;;;;;20.46;100.00;97397.47;5033010;28;20746;-71
2023/06/22 00:18:00;;;;;;;41.65;21.02;;;;;;;20.50;100.00;97396.84;5037136;28;20433;-71
2023/06/22 00:20:28;;;;;;;39.38;20.85;;;;;;;20.53;100.00;97402.38;5032150;28;20461;-71
2023/06/22 00:22:54;;;;;;;42.47;22.02;;;;;;;20.53;100.00;97406.97;5051417;28;20442;-71
2023/06/22 00:25:20;;;;;;;34.08;19.27;;;;;;;20.50;100.00;97405.72;5031605;28;20411;-71
2023/06/22 00:27:48;;;;;;;29.08;17.05;;;;;;;20.48;100.00;97416.78;5031959;28;20465;-71
2023/06/22 00:30:15;;;;;;;29.08;16.83;;;;;;;20.48;100.00;97402.53;5031792;28;20501;-71
2023/06/22 00:32:41;;;;;;;30.23;17.90;;;;;;;20.45;100.00;97406.63;5043936;28;20413;-71
2023/06/22 00:35:09;;;;;;;36.80;19.33;;;;;;;20.44;100.00;97401.59;5051082;28;20894;-71
2023/06/22 00:37:35;;;;;;;31.48;17.92;;;;;;;20.41;100.00;97391.47;5051180;28;20441;-70
2023/06/22 00:40:02;;;;;;;32.78;17.50;;;;;;;20.38;100.00;97392.06;5051609;28;20397;-70
2023/06/22 00:42:29;;;;;;;26.57;15.73;;;;;;;20.37;100.00;97393.19;5043418;28;20411;-70
2023/06/22 00:44:57;;;;;;;23.55;15.10;;;;;;;20.33;100.00;97395.72;5031602;28;20516;-70
2023/06/22 00:47:23;;;;;;;24.40;15.45;;;;;;;20.31;100.00;97397.09;5032456;28;20411;-71
2023/06/22 00:49:53;;;;;;;24.00;14.88;;;;;;;20.28;100.00;97397.72;5043717;28;20428;-72
2023/06/22 00:52:28;;;;;;;26.77;16.35;;;;;;;20.28;100.00;97409.28;5038241;28;20528;-71
2023/06/22 00:54:56;;;;;;;43.17;22.67;;;;;;;20.29;100.00;97424.31;5051249;28;20451;-72
2023/06/22 00:57:25;;;;;;;41.17;21.00;;;;;;;20.28;100.00;97422.72;5050197;28;20421;-71
2023/06/22 00:59:52;;;;;;;31.08;17.65;;;;;;;20.18;100.00;97406.88;5050955;28;20414;-72
2023/06/22 01:02:19;;;;;;;28.70;17.05;;;;;;;20.17;100.00;97412.56;5045980;28;20434;-71
2023/06/22 01:04:46;;;;;;;33.90;20.98;;;;;;;20.21;100.00;97453.84;5031035;28;20750;-71
2023/06/22 01:07:22;;;;;;;34.92;19.42;;;;;;;20.25;100.00;97476.31;5031100;28;20410;-71
2023/06/22 01:09:57;;;;;;;30.85;18.00;;;;;;;20.23;100.00;97441.66;5033027;28;20407;-71
2023/06/22 01:12:25;;;;;;;27.00;16.77;;;;;;;20.22;100.00;97413.22;5045519;28;20916;-71
2023/06/22 01:15:01;;;;;;;24.95;14.90;;;;;;;20.26;100.00;97432.19;5037390;28;20421;-71
2023/06/22 01:17:31;;;;;;;35.15;19.35;;;;;;;20.29;100.00;97436.97;5066059;28;20424;-71
2023/06/22 01:20:00;;;;;;;35.80;18.27;;;;;;;20.31;100.00;97432.84;5048248;28;20442;-71
2023/06/22 01:22:30;;;;;;;24.83;15.65;;;;;;;20.25;100.00;97415.28;5036619;28;20403;-71
2023/06/22 01:25:09;;;;;;;24.85;14.77;;;;;;;20.22;100.00;97409.75;5031006;28;20938;-70
2023/06/22 01:27:47;;;;;;;23.45;13.95;;;;;;;20.20;100.00;97414.63;5030444;28;20877;-70
2023/06/22 01:30:18;;;;;;;23.95;14.82;;;;;;;20.21;100.00;97411.63;5043613;28;20413;-72
2023/06/22 01:32:45;;;;;;;28.20;16.67;;;;;;;20.19;100.00;97404.97;5048526;28;20456;-71
2023/06/22 01:35:14;;;;;;;22.27;15.00;;;;;;;20.09;100.00;97400.69;5050061;28;20763;-71
2023/06/22 01:37:40;;;;;;;23.67;15.00;;;;;;;20.07;100.00;97403.66;5050410;28;20906;-71
2023/06/22 01:40:08;;;;;;;28.50;15.75;;;;;;;20.06;100.00;97417.44;5038482;28;20765;-71
2023/06/22 01:42:36;;;;;;;23.25;15.00;;;;;;;20.05;100.00;97416.66;5030793;28;20409;-71
2023/06/22 01:45:04;;;;;;;22.60;14.77;;;;;;;20.01;100.00;97404.91;5031459;28;20407;-71
2023/06/22 01:47:33;;;;;;;21.02;13.73;;;;;;;20.00;100.00;97411.41;5030590;28;20484;-71
2023/06/22 01:50:00;;;;;;;25.10;14.52;;;;;;;20.00;100.00;97418.66;5041405;28;20424;-71
2023/06/22 01:52:26;;;;;;;27.65;15.02;;;;;;;19.96;100.00;97421.19;5049806;28;20452;-71
2023/06/22 01:54:53;;;;;;;20.58;13.60;;;;;;;19.87;100.00;97420.34;5050368;28;20393;-71
2023/06/22 01:57:20;;;;;;;19.70;13.13;;;;;;;19.84;100.00;97421.00;5050124;28;20413;-71
2023/06/22 01:59:52;;;;;;;19.20;12.88;;;;;;;19.82;100.00;97439.31;5041341;28;20465;-71
2023/06/22 02:02:26;;;;;;;19.35;12.70;;;;;;;19.81;100.00;97426.19;5047050;28;20438;-71
2023/06/22 02:04:57;;;;;;;20.35;13.75;;;;;;;19.80;100.00;97432.66;5030425;28;20958;-71
2023/06/22 02:07:28;;;;;;;22.40;14.00;;;;;;;19.78;100.00;97432.16;5031873;28;20425;-71
2023/06/22 02:09:56;;;;;;;22.38;13.98;;;;;;;19.75;100.00;97432.78;5044252;28;20409;-71
2023/06/22 02:12:25;;;;;;;25.70;15.07;;;;;;;19.65;100.00;97431.94;5054098;28;20471;-71
2023/06/22 02:14:52;;;;;;;23.23;14.30;;;;;;;19.56;100.00;97433.78;5034366;28;20403;-71
2023/06/22 02:17:18;;;;;;;29.40;16.00;;;;;;;19.57;100.00;97435.38;5034542;28;20973;-71
2023/06/22 02:19:45;;;;;;;30.02;17.25;;;;;;;19.56;100.00;97428.41;5042046;28;20950;-71
2023/06/22 02:22:13;;;;;;;29.60;17.17;;;;;;;19.58;100.00;97431.59;5034272;28;20407;-71
2023/06/22 02:24:39;;;;;;;28.08;17.08;;;;;;;19.56;100.00;97428.41;5034525;28;20816;-72
2023/06/22 02:27:07;;;;;;;25.38;16.23;;;;;;;19.46;100.00;97425.19;5053720;28;20414;-72
2023/06/22 02:29:33;;;;;;;26.73;16.00;;;;;;;19.41;100.00;97422.59;5047449;28;20415;-72
2023/06/22 02:31:59;;;;;;;25.40;15.77;;;;;;;19.40;100.00;97412.97;5034404;28;20435;-72
2023/06/22 02:34:25;;;;;;;26.05;16.00;;;;;;;19.41;100.00;97411.88;5049193;28;20762;-72
2023/06/22 02:36:52;;;;;;;28.15;17.55;;;;;;;19.45;100.00;97412.84;5053925;28;20405;-72
2023/06/22 02:39:22;;;;;;;25.77;15.50;;;;;;;19.46;100.00;97412.56;5049919;28;20419;-72
2023/06/22 02:41:48;;;;;;;31.60;18.15;;;;;;;19.40;100.00;97404.91;5033994;28;20403;-72
2023/06/22 02:44:15;;;;;;;26.20;16.17;;;;;;;19.32;100.00;97409.94;5033847;28;20418;-72
2023/06/22 02:46:41;;;;;;;28.40;17.00;;;;;;;19.27;100.00;97399.31;5033693;28;20739;-73
2023/06/22 02:49:07;;;;;;;27.23;16.05;;;;;;;19.28;100.00;97392.06;5036485;28;20465;-72
2023/06/22 02:51:34;;;;;;;39.15;21.30;;;;;;;19.34;100.00;97397.00;5053727;28;20770;-72
2023/06/22 02:54:00;;;;;;;41.40;20.87;;;;;;;19.32;100.00;97396.50;5053134;28;20508;-73
2023/06/22 02:56:30;;;;;;;36.28;19.73;;;;;;;19.36;100.00;97399.38;5053513;28;20459;-72
2023/06/22 02:59:00;;;;;;;33.00;19.50;;;;;;;19.34;100.00;97397.00;5052840;28;20459;-72
2023/06/22 03:01:27;;;;;;;29.60;17.48;;;;;;;19.30;100.00;97392.56;5033673;28;20915;-72
2023/06/22 03:03:54;;;;;;;31.30;17.40;;;;;;;19.30;100.00;97389.88;5044778;28;20492;-72
2023/06/22 03:06:23;;;;;;;31.70;17.75;;;;;;;19.27;100.00;97391.28;5053232;28;20883;-72
2023/06/22 03:08:49;;;;;;;28.33;17.27;;;;;;;19.26;100.00;97381.63;5053352;28;20411;-72
2023/06/22 03:11:15;;;;;;;27.60;16.67;;;;;;;19.24;100.00;97386.53;5034587;28;20407;-72
2023/06/22 03:13:45;;;;;;;25.87;16.17;;;;;;;19.23;100.00;97384.16;5033288;28;20446;-72
2023/06/22 03:16:11;;;;;;;28.33;17.60;;;;;;;19.13;100.00;97377.13;5049047;28;20420;-72
2023/06/22 03:18:37;;;;;;;33.70;19.30;;;;;;;19.10;100.00;97380.41;5040628;28;20415;-72
2023/06/22 03:21:04;;;;;;;29.38;17.80;;;;;;;19.07;100.00;97378.38;5049282;28;20447;-72
2023/06/22 03:23:30;;;;;;;32.85;19.10;;;;;;;19.07;100.00;97382.94;5051347;28;20402;-72
2023/06/22 03:25:56;;;;;;;28.33;17.33;;;;;;;19.05;100.00;97379.75;5052139;28;20420;-72
2023/06/22 03:28:22;;;;;;;28.85;17.05;;;;;;;19.04;100.00;97387.00;5053017;28;20432;-72
2023/06/22 03:30:50;;;;;;;25.10;16.17;;;;;;;19.05;100.00;97380.56;5048631;28;20416;-72
2023/06/22 03:33:16;;;;;;;32.00;18.77;;;;;;;19.03;100.00;97379.25;5048591;28;20787;-72
2023/06/22 03:35:42;;;;;;;31.08;17.50;;;;;;;18.99;100.00;97384.47;5031440;28;20419;-72
2023/06/22 03:38:08;;;;;;;28.70;18.08;;;;;;;19.00;100.00;97379.91;5032832;28;20946;-72
2023/06/22 03:40:35;;;;;;;33.30;18.13;;;;;;;18.98;100.00;97377.50;5032956;28;20413;-72
2023/06/22 03:43:01;;;;;;;27.00;16.25;;;;;;;18.96;100.00;97371.66;5033042;28;20869;-72
2023/06/22 03:45:27;;;;;;;27.88;15.93;;;;;;;18.95;100.00;97373.53;5049353;28;20413;-72
2023/06/22 03:47:55;;;;;;;31.02;17.10;;;;;;;18.97;100.00;97369.75;5052208;28;20421;-72
2023/06/22 03:50:21;;;;;;;22.17;14.50;;;;;;;19.00;100.00;97371.84;5044992;28;20415;-72
2023/06/22 03:52:47;;;;;;;28.02;15.68;;;;;;;19.01;100.00;97368.88;5033031;28;20836;-72
2023/06/22 03:55:13;;;;;;;30.75;18.17;;;;;;;19.05;100.00;97369.81;5035312;28;20514;-72
2023/06/22 03:57:40;;;;;;;39.38;21.30;;;;;;;19.07;100.00;97369.53;5035675;28;20423;-72
2023/06/22 04:00:10;;;;;;;39.22;21.17;;;;;;;19.00;100.00;97366.47;5035560;28;20410;-72
2023/06/22 04:02:36;;;;;;;33.70;19.02;;;;;;;18.94;100.00;97363.91;5052290;28;20412;-72
2023/06/22 04:05:05;;;;;;;31.88;18.10;;;;;;;18.94;100.00;97363.91;5037345;28;20407;-72
2023/06/22 04:07:32;;;;;;;38.05;21.05;;;;;;;19.01;100.00;97363.50;5033004;28;20410;-72
2023/06/22 04:09:58;;;;;;;35.67;19.95;;;;;;;19.04;100.00;97362.88;5032744;28;20431;-71
2023/06/22 04:12:24;;;;;;;35.40;19.90;;;;;;;19.06;100.00;97352.63;5032548;28;20414;-72
2023/06/22 04:14:50;;;;;;;28.25;17.42;;;;;;;19.09;100.00;97361.97;5045002;28;20783;-72
2023/06/22 04:17:17;;;;;;;28.55;16.42;;;;;;;19.10;100.00;97358.94;5047151;28;20415;-72
2023/06/22 04:19:43;;;;;;;26.58;15.68;;;;;;;19.13;100.00;97358.34;5037203;28;20411;-71
2023/06/22 04:22:11;;;;;;;24.60;15.90;;;;;;;19.14;100.00;97357.25;5037597;28;20419;-71
2023/06/22 04:24:38;;;;;;;27.45;16.38;;;;;;;19.17;100.00;97347.81;5042049;28;20904;-72
2023/06/22 04:27:05;;;;;;;31.63;17.50;;;;;;;19.19;100.00;97349.06;5040916;28;20439;-71
2023/06/22 04:29:31;;;;;;;27.17;16.33;;;;;;;19.23;100.00;97349.25;5040401;28;20501;-72
2023/06/22 04:31:58;;;;;;;27.60;15.43;;;;;;;19.29;100.00;97350.72;5039230;28;20397;-71
2023/06/22 04:34:28;;;;;;;30.50;16.88;;;;;;;19.33;100.00;97351.66;5041777;28;20415;-71
2023/06/22 04:36:55;;;;;;;26.55;15.50;;;;;;;19.37;100.00;97349.97;5036218;28;20409;-71
2023/06/22 04:39:23;;;;;;;26.33;16.42;;;;;;;19.40;100.00;97345.84;5045596;28;20472;-72
2023/06/22 04:41:51;;;;;;;25.65;15.80;;;;;;;19.42;100.00;97351.72;5047973;28;20434;-72
2023/06/22 04:44:23;;;;;;;24.27;14.65;;;;;;;19.43;100.00;97340.69;5050138;28;20409;-72
2023/06/22 04:46:53;;;;;;;22.90;14.90;;;;;;;19.46;100.00;97342.75;5049774;28;20500;-71
2023/06/22 04:49:21;;;;;;;21.85;14.23;;;;;;;19.51;100.00;97331.91;5045506;28;20402;-72
2023/06/22 04:51:48;;;;;;;24.77;14.05;;;;;;;19.57;100.00;97335.22;5040314;28;20409;-72
2023/06/22 04:54:14;;;;;;;21.02;13.32;;;;;;;19.62;100.00;97325.13;5048250;28;20445;-72
2023/06/22 04:56:42;;;;;;;22.50;14.00;;;;;;;19.68;100.00;97326.59;5046324;28;20419;-71
2023/06/22 04:59:08;;;;;;;22.08;14.10;;;;;;;19.73;100.00;97325.66;5049727;28;20412;-71
2023/06/22 05:01:34;;;;;;;23.13;13.37;;;;;;;19.79;100.00;97323.63;5051133;28;20421;-71
2023/06/22 05:04:02;;;;;;;18.20;11.55;;;;;;;19.87;100.00;97322.84;5041998;28;20830;-72
2023/06/22 05:06:28;;;;;;;19.77;11.35;;;;;;;19.95;100.00;97325.56;5031525;28;20414;-71
2023/06/22 05:08:57;;;;;;;17.65;11.32;;;;;;;20.03;100.00;97326.69;5032885;28;20465;-71
2023/06/22 05:11:24;;;;;;;14.82;9.73;;;;;;;20.11;100.00;97328.59;5042270;28;20459;-71
2023/06/22 05:13:51;;;;;;;14.48;9.48;;;;;;;20.19;100.00;97324.34;5043445;28;20415;-71
2023/06/22 05:16:22;;;;;;;20.15;12.40;;;;;;;20.23;100.00;97323.38;5033439;28;20431;-71
2023/06/22 05:18:49;;;;;;;19.17;11.25;;;;;;;20.30;100.00;97320.22;5042441;28;20490;-71
2023/06/22 05:21:15;;;;;;;15.90;9.77;;;;;;;20.37;100.00;97317.94;5049996;28;20413;-71
2023/06/22 05:23:42;;;;;;;12.23;8.68;;;;;;;20.44;100.00;97310.97;5051122;28;20394;-71
2023/06/22 05:26:10;;;;;;;13.43;8.85;;;;;;;20.51;100.00;97315.06;5043596;28;20498;-71
2023/06/22 05:28:36;;;;;;;11.70;8.57;;;;;;;20.57;100.00;97303.84;5031161;28;20418;-71
2023/06/22 05:31:03;;;;;;;12.23;9.10;;;;;;;20.62;100.00;97306.34;5036587;28;20418;-71
2023/06/22 05:33:30;;;;;;;11.20;8.52;;;;;;;20.67;100.00;97300.03;5035106;28;20915;-71
2023/06/22 05:35:56;;;;;;;11.18;8.45;;;;;;;20.72;100.00;97303.34;5044894;28;20402;-71
2023/06/22 05:38:22;;;;;;;9.32;7.40;;;;;;;20.79;100.00;97300.97;5030997;28;20830;-71
2023/06/22 05:40:48;;;;;;;8.03;6.30;;;;;;;20.86;100.00;97305.84;5030947;28;20415;-71
2023/06/22 05:43:14;;;;;;;9.00;6.80;;;;;;;20.89;100.00;97305.22;5039897;28;20412;-71
2023/06/22 05:45:41;;;;;;;8.57;6.50;;;;;;;20.93;100.00;97305.38;5047621;28;20504;-71
2023/06/22 05:48:09;;;;;;;8.48;6.45;;;;;;;20.95;100.00;97313.94;5046894;28;21023;-72
2023/06/22 05:50:36;;;;;;;8.23;5.82;;;;;;;20.97;100.00;97307.13;5043718;28;20933;-71
2023/06/22 05:53:03;;;;;;;10.27;7.45;;;;;;;20.98;100.00;97308.69;5033231;28;20419;-71
2023/06/22 05:55:29;;;;;;;7.18;6.05;;;;;;;21.01;100.00;97305.34;5038056;28;20750;-71
2023/06/22 05:57:55;;;;;;;8.70;6.60;;;;;;;21.01;100.00;97307.25;5029678;28;20407;-71
2023/06/22 06:00:22;;;;;;;10.65;7.15;;;;;;;20.98;100.00;97303.28;5032593;28;20421;-71
2023/06/22 06:02:49;;;;;;;11.07;7.32;;;;;;;20.94;100.00;97305.06;5030366;28;20825;-71
2023/06/22 06:05:16;;;;;;;11.82;7.32;;;;;;;20.91;100.00;97303.00;5038799;28;20420;-71
2023/06/22 06:07:45;;;;;;;9.65;7.03;;;;;;;20.90;100.00;97306.78;5049908;28;20413;-71
2023/06/22 06:10:11;;;;;;;12.52;7.68;;;;;;;20.88;100.00;97302.84;5043640;28;20506;-71
2023/06/22 06:12:38;;;;;;;10.30;7.35;;;;;;;20.86;100.00;97292.41;5030227;28;20415;-71
2023/06/22 06:15:06;;;;;;;10.93;7.55;;;;;;;20.87;100.00;97294.00;5031069;28;20510;-71
2023/06/22 06:17:32;;;;;;;11.10;7.68;;;;;;;20.89;100.00;97291.00;5039641;28;20424;-70
2023/06/22 06:20:00;;;;;;;12.10;7.72;;;;;;;20.93;100.00;97295.41;5060734;28;20508;-72
2023/06/22 06:22:27;;;;;;;11.05;7.63;;;;;;;20.99;100.00;97287.94;5030136;28;21135;-70
2023/06/22 06:24:53;;;;;;;11.43;8.17;;;;;;;21.04;100.00;97288.59;5030087;28;20935;-70
2023/06/22 06:27:20;;;;;;;13.70;7.80;;;;;;;21.09;100.00;97296.47;5030093;28;20415;-72
2023/06/22 06:29:48;;;;;;;9.23;6.90;;;;;;;21.16;100.00;97296.81;5036424;28;20448;-72
2023/06/22 06:32:15;;;;;;;11.65;7.88;;;;;;;21.22;100.00;97292.81;5049974;28;20401;-72
2023/06/22 06:34:41;;;;;;;8.35;6.25;;;;;;;21.28;100.00;97287.25;5049339;28;20405;-72
2023/06/22 06:37:07;;;;;;;8.68;6.47;;;;;;;21.31;100.00;97300.06;5035093;28;20506;-71
2023/06/22 06:39:35;;;;;;;8.02;6.07;;;;;;;21.35;100.00;97298.34;5040991;28;20424;-71
2023/06/22 06:42:01;;;;;;;9.63;6.85;;;;;;;21.40;100.00;97301.63;5039939;28;20911;-71
2023/06/22 06:44:27;;;;;;;8.25;6.40;;;;;;;21.44;100.00;97294.47;5054125;28;20399;-71
2023/06/22 06:46:54;;;;;;;8.00;6.30;;;;;;;21.50;100.00;97292.41;5043966;28;20437;-71
2023/06/22 06:49:20;;;;;;;7.45;6.40;;;;;;;21.56;100.00;97299.19;5038125;28;20427;-72
2023/06/22 06:51:46;;;;;;;11.50;7.90;;;;;;;21.56;100.00;97297.28;5044429;28;20971;-72
2023/06/22 06:54:12;;;;;;;9.82;7.60;;;;;;;21.60;100.00;97297.41;5050978;28;20413;-72
2023/06/22 06:56:40;;;;;;;8.52;6.50;;;;;;;21.63;100.00;97292.19;5039160;28;20424;-73
2023/06/22 06:59:06;;;;;;;8.33;6.87;;;;;;;21.63;100.00;97286.81;5042357;28;20452;-73
2023/06/22 07:01:33;;;;;;;8.45;6.20;;;;;;;21.69;100.00;97300.88;5045827;28;20516;-73
2023/06/22 07:04:00;;;;;;;7.13;5.60;;;;;;;21.73;100.00;97298.28;5053524;28;20902;-74
2023/06/22 07:06:31;;;;;;;8.55;6.07;;;;;;;21.75;100.00;97288.78;5039100;28;20411;-73
2023/06/22 07:08:58;;;;;;;7.47;5.53;;;;;;;21.80;100.00;97285.13;5053696;28;20814;-72
2023/06/22 07:11:24;;;;;;;8.30;5.43;;;;;;;21.83;100.00;97282.56;5049739;28;20509;-72
2023/06/22 07:13:52;;;;;;;14.13;8.47;;;;;;;21.86;100.00;97283.81;5044626;28;20476;-72
2023/06/22 07:16:18;;;;;;;11.88;7.72;;;;;;;21.89;100.00;97275.06;5034474;28;21027;-71
2023/06/22 07:18:44;;;;;;;9.40;7.28;;;;;;;21.92;100.00;97279.81;5049527;28;20417;-71
2023/06/22 07:21:10;;;;;;;12.57;9.00;;;;;;;21.88;100.00;97268.09;5034645;28;20407;-71
2023/06/22 07:23:37;;;;;;;8.48;6.80;;;;;;;21.96;100.00;97262.69;5048632;28;20476;-71
2023/06/22 07:26:06;;;;;;;15.20;7.72;;;;;;;21.93;100.00;97257.16;5039086;28;20417;-71
2023/06/22 07:28:50;;;;;;;11.50;7.10;;;;;;;22.07;100.00;97256.91;5042854;28;20416;-72
2023/06/22 07:31:16;;;;;;;7.28;6.15;;;;;;;22.11;100.00;97252.44;5048141;28;20496;-72
2023/06/22 07:33:43;;;;;;;8.98;6.68;;;;;;;22.15;100.00;97256.84;5053174;28;20428;-72
2023/06/22 07:36:09;;;;;;;7.55;6.20;;;;;;;22.20;100.00;97242.38;5051682;28;20445;-73
2023/06/22 07:38:37;;;;;;;8.20;6.10;;;;;;;22.25;100.00;97234.88;5044258;28;20411;-73
2023/06/22 07:41:05;;;;;;;6.47;5.50;;;;;;;22.31;100.00;97236.28;5046661;28;20403;-72
2023/06/22 07:43:33;;;;;;;7.85;5.38;;;;;;;22.35;100.00;97234.47;5033404;28;20752;-72
2023/06/22 07:46:00;;;;;;;7.53;5.10;;;;;;;22.39;100.00;97235.41;5039769;28;20627;-72
2023/06/22 07:48:26;;;;;;;8.45;6.10;;;;;;;22.42;100.00;97217.75;5046901;28;20471;-72
2023/06/22 07:50:53;;;;;;;7.03;5.60;;;;;;;22.47;100.00;97211.38;5052332;28;20451;-71
2023/06/22 07:53:19;;;;;;;11.83;7.50;;;;;;;22.42;100.00;97212.38;5040222;28;20493;-71
2023/06/22 07:55:46;;;;;;;12.35;8.65;;;;;;;22.48;100.00;97218.38;5052095;28;20415;-72
2023/06/22 07:58:12;;;;;;;14.30;8.45;;;;;;;22.49;100.00;97217.22;5052268;28;20409;-71
2023/06/22 08:00:38;;;;;;;9.10;7.30;;;;;;;22.58;100.00;97218.72;5035908;28;20403;-71
2023/06/22 08:03:06;;;;;;;9.55;7.00;;;;;;;22.64;100.00;97219.28;5033410;28;20509;-71
2023/06/22 08:05:33;;;;;;;12.30;8.52;;;;;;;22.67;100.00;97232.13;5035141;28;20428;-72
2023/06/22 08:07:59;;;;;;;9.73;7.38;;;;;;;22.78;100.00;97238.69;5041129;28;20418;-72
2023/06/22 08:10:25;;;;;;;12.07;7.17;;;;;;;22.84;100.00;97248.19;5032754;28;20403;-71
2023/06/22 08:12:52;;;;;;;7.93;6.78;;;;;;;22.93;100.00;97253.50;5033045;28;20474;-71
2023/06/22 08:15:18;;;;;;;13.00;7.72;;;;;;;22.99;100.00;97252.16;5043391;28;20416;-71
2023/06/22 08:17:48;;;;;;;8.65;6.63;;;;;;;23.12;100.00;97248.34;5041796;28;20498;-71
2023/06/22 08:20:15;;;;;;;8.70;6.30;;;;;;;23.27;100.00;97246.91;5043120;28;20413;-71
2023/06/22 08:22:42;;;;;;;7.47;5.63;;;;;;;23.40;100.00;97256.56;5045217;28;20441;-71
2023/06/22 08:25:09;;;;;;;7.20;5.22;;;;;;;23.49;100.00;97260.00;5038517;28;20412;-71
2023/06/22 08:27:36;;;;;;;14.38;7.40;;;;;;;23.35;100.00;97262.22;5047030;28;20503;-71
2023/06/22 08:30:04;;;;;;;12.25;6.82;;;;;;;23.40;100.00;97260.06;5042247;28;20419;-70
2023/06/22 08:32:32;;;;;;;12.47;6.37;;;;;;;23.50;100.00;97262.38;5040035;28;20409;-72
2023/06/22 08:34:58;;;;;;;11.20;6.20;;;;;;;23.45;100.00;97262.56;5050880;28;20911;-72
2023/06/22 08:37:30;;;;;;;8.02;5.22;;;;;;;23.57;100.00;97261.00;5050224;28;20772;-72
2023/06/22 08:39:57;;;;;;;17.98;6.97;;;;;;;23.37;100.00;97259.97;5047166;28;20419;-72
2023/06/22 08:42:24;;;;;;;13.25;6.53;;;;;;;23.34;100.00;97257.94;5045650;28;20888;-72
2023/06/22 08:44:50;;;;;;;7.88;5.47;;;;;;;23.55;100.00;97245.13;5045730;28;20432;-72
2023/06/22 08:47:16;;;;;;;12.05;6.45;;;;;;;23.85;100.00;97245.66;5038417;28;20424;-72
2023/06/22 08:49:42;;;;;;;12.95;5.95;;;;;;;24.13;100.00;97245.75;5042798;28;20413;-72
2023/06/22 08:52:09;;;;;;;20.55;6.82;;;;;;;23.87;100.00;97243.41;5050114;28;20416;-72
2023/06/22 08:54:37;;;;;;;12.77;5.80;;;;;;;24.20;100.00;97241.34;5043217;28;20427;-72
2023/06/22 08:57:04;;;;;;;18.65;6.88;;;;;;;24.23;100.00;97243.38;5034803;28;20431;-72
2023/06/22 08:59:30;;;;;;;14.60;6.22;;;;;;;24.14;100.00;97250.00;5045275;28;20422;-74
2023/06/22 09:01:57;;;;;;;9.02;5.90;;;;;;;24.33;100.00;97246.72;5048837;28;20413;-72
2023/06/22 09:04:23;;;;;;;10.38;5.70;;;;;;;24.43;100.00;97251.66;5035300;28;20394;-72
2023/06/22 09:06:52;;;;;;;8.45;5.70;;;;;;;24.66;100.00;97241.84;5048302;28;20410;-72
2023/06/22 09:09:18;;;;;;;10.23;5.95;;;;;;;24.84;100.00;97231.47;5044668;28;20408;-72
2023/06/22 09:11:46;;;;;;;10.93;5.30;;;;;;;24.94;100.00;97220.19;5049947;28;20405;-72
2023/06/22 09:14:13;;;;;;;6.55;4.40;;;;;;;24.97;100.00;97241.91;5037552;28;20457;-73
2023/06/22 09:16:39;;;;;;;8.00;5.20;;;;;;;24.96;100.00;97272.09;5045339;28;20507;-71
2023/06/22 09:19:05;;;;;;;8.43;5.22;;;;;;;24.95;100.00;97265.09;5049965;28;20413;-72
2023/06/22 09:21:32;;;;;;;7.65;5.18;;;;;;;25.04;100.00;97254.84;5042741;28;20411;-72
2023/06/22 09:23:58;;;;;;;10.20;5.93;;;;;;;25.26;100.00;97248.84;5045396;28;20409;-72
2023/06/22 09:26:25;;;;;;;11.13;5.82;;;;;;;25.35;100.00;97245.97;5045097;28;20415;-73
2023/06/22 09:29:16;;;;;;;14.57;6.00;;;;;;;25.47;100.00;97228.84;5040494;28;20421;-73
2023/06/22 09:31:42;;;;;;;10.60;5.70;;;;;;;25.58;100.00;97214.41;5035378;28;20403;-71
2023/06/22 09:34:08;;;;;;;9.25;5.10;;;;;;;25.67;100.00;97215.00;5043211;28;20417;-71
2023/06/22 09:36:35;;;;;;;6.75;4.75;;;;;;;25.77;100.00;97213.69;5048232;28;20462;-71
2023/06/22 09:39:05;;;;;;;7.35;4.72;;;;;;;25.90;100.00;97215.13;5042451;28;20980;-71
2023/06/22 09:41:32;;;;;;;4.55;3.83;;;;;;;26.01;100.00;97204.53;5038067;28;20759;-71
2023/06/22 09:43:58;;;;;;;25.95;9.00;;;;;;;26.21;100.00;97212.31;5058129;28;20428;-71
2023/06/22 09:46:26;;;;;;;13.38;6.65;;;;;;;26.36;100.00;97210.69;5039307;28;20411;-70
2023/06/22 09:48:52;;;;;;;18.50;7.22;;;;;;;26.11;100.00;97196.59;5061888;28;20462;-71
2023/06/22 09:51:19;;;;;;;9.77;5.38;;;;;;;26.26;100.00;97191.47;5033694;28;20413;-72
2023/06/22 09:53:47;;;;;;;10.57;5.55;;;;;;;26.40;100.00;97176.25;5030270;28;20419;-71
2023/06/22 09:56:16;;;;;;;21.65;7.07;;;;;;;26.17;100.00;97176.16;5044918;28;20497;-71
2023/06/22 09:58:44;;;;;;;13.10;6.30;;;;;;;26.31;100.00;97170.28;5032310;28;20459;-72
2023/06/22 10:01:10;;;;;;;10.77;6.13;;;;;;;26.43;100.00;97169.31;5030894;28;20820;-71
2023/06/22 10:03:41;;;;;;;9.35;5.40;;;;;;;26.62;100.00;97173.94;5043306;28;20874;-71
2023/06/22 10:06:08;;;;;;;13.90;6.30;;;;;;;26.77;100.00;97173.03;5041712;28;20899;-72
2023/06/22 10:08:34;;;;;;;11.55;6.05;;;;;;;26.79;100.00;97170.75;5031650;28;20411;-72
2023/06/22 10:11:00;;;;;;;15.88;6.82;;;;;;;26.88;100.00;97174.03;5029333;28;20411;-73
2023/06/22 10:13:27;;;;;;;16.85;6.80;;;;;;;26.57;100.00;97159.50;5030505;28;20900;-71
2023/06/22 10:15:53;;;;;;;13.30;6.15;;;;;;;26.53;100.00;97155.19;5049627;28;20415;-71
2023/06/22 10:18:20;;;;;;;8.57;5.53;;;;;;;26.48;100.00;97155.44;5048173;28;20412;-72
2023/06/22 10:20:51;;;;;;;10.07;5.35;;;;;;;26.54;100.00;97159.44;5039122;28;20497;-71
2023/06/22 10:23:17;;;;;;;10.38;5.30;;;;;;;26.57;100.00;97156.81;5038858;28;20403;-72
2023/06/22 10:25:43;;;;;;;12.60;5.93;;;;;;;26.49;100.00;97154.31;5039473;28;20423;-73
2023/06/22 10:28:10;;;;;;;14.93;6.55;;;;;;;26.60;100.00;97155.31;5040909;28;20898;-72
2023/06/22 10:30:36;;;;;;;17.85;6.72;;;;;;;26.57;100.00;97159.50;5042548;28;20411;-73
2023/06/22 10:33:02;;;;;;;8.95;5.55;;;;;;;26.69;100.00;97153.13;5041916;28;20419;-72
2023/06/22 10:35:29;;;;;;;7.70;5.23;;;;;;;26.86;100.00;97151.84;5043841;28;20531;-73
2023/06/22 10:37:56;;;;;;;18.23;6.30;;;;;;;26.83;100.00;97144.44;5042917;28;20467;-73
2023/06/22 10:40:23;;;;;;;11.23;5.95;;;;;;;27.09;100.00;97133.63;5042605;28;20902;-73
2023/06/22 10:42:50;;;;;;;8.95;5.30;;;;;;;27.28;100.00;97135.50;5042881;28;20909;-73
2023/06/22 10:45:16;;;;;;;10.75;6.10;;;;;;;27.29;100.00;97128.91;5042913;28;20405;-72
2023/06/22 10:47:42;;;;;;;13.38;6.88;;;;;;;27.33;100.00;97125.09;5043225;28;20419;-72
2023/06/22 10:50:10;;;;;;;7.68;5.38;;;;;;;27.49;100.00;97129.56;5044055;28;20423;-72
2023/06/22 10:52:36;;;;;;;8.65;5.07;;;;;;;27.54;100.00;97132.78;5043251;28;20746;-71
2023/06/22 10:55:05;;;;;;;12.43;6.00;;;;;;;27.57;100.00;97139.44;5042891;28;20497;-72
2023/06/22 10:57:31;;;;;;;9.15;4.70;;;;;;;27.60;100.00;97138.69;5042379;28;20445;-72
2023/06/22 10:59:57;;;;;;;8.38;5.18;;;;;;;27.64;100.00;97134.88;5041482;28;20421;-72
2023/06/22 11:02:24;;;;;;;5.43;4.22;;;;;;;27.62;100.00;97129.00;5040679;28;20638;-71
2023/06/22 11:04:51;;;;;;;8.05;4.70;;;;;;;27.62;100.00;97130.94;5037809;28;20408;-72
2023/06/22 11:07:17;;;;;;;6.22;4.60;;;;;;;27.57;100.00;97134.78;5042697;28;20410;-72
2023/06/22 11:09:43;;;;;;;10.13;4.93;;;;;;;27.55;100.00;97128.91;5033523;28;20461;-71
2023/06/22 11:12:11;;;;;;;5.45;4.03;;;;;;;27.57;100.00;97128.56;5046078;28;20471;-72
2023/06/22 11:14:39;;;;;;;11.85;5.30;;;;;;;27.52;100.00;97131.53;5052385;28;20497;-72